sensor_id;sensor_type;location;lat;lon;timestamp;P1;durP1;ratioP1;P2;durP2;ratioP2
13289;SDS011;6713;50.954;5.310;2024-01-30T00:00:08;7.83;;;5.73;;
13289;SDS011;6713;50.954;5.310;2024-01-30T00:02:34;10.20;;;7.23;;
13289;SDS011;6713;50.954;5.310;2024-01-30T00:05:00;7.50;;;6.70;;
13289;SDS011;6713;50.954;5.310;2024-01-30T00:07:30;9.30;;;6.23;;
13289;SDS011;6713;50.954;5.310;2024-01-30T00:09:56;9.80;;;6.93;;
13289;SDS011;6713;50.954;5.310;2024-01-30T00:12:22;8.27;;;6.97;;
13289;SDS011;6713;50.954;5.310;2024-01-30T00:14:49;9.57;;;6.90;;
13289;SDS011;6713;50.954;5.310;2024-01-30T00:17:15;8.17;;;7.00;;
13289;SDS011;6713;50.954;5.310;2024-01-30T00:19:41;7.53;;;6.47;;
13289;SDS011;6713;50.954;5.310;2024-01-30T00:22:08;8.63;;;6.93;;
13289;SDS011;6713;50.954;5.310;2024-01-30T00:24:36;9.90;;;7.43;;
13289;SDS011;6713;50.954;5.310;2024-01-30T00:27:02;8.17;;;7.30;;
13289;SDS011;6713;50.954;5.310;2024-01-30T00:29:29;9.90;;;6.27;;
13289;SDS011;6713;50.954;5.310;2024-01-30T00:31:58;9.03;;;6.50;;
13289;SDS011;6713;50.954;5.310;2024-01-30T00:34:25;9.50;;;6.67;;
13289;SDS011;6713;50.954;5.310;2024-01-30T00:36:51;7.47;;;6.47;;
13289;SDS011;6713;50.954;5.310;2024-01-30T00:39:17;8.80;;;6.97;;
13289;SDS011;6713;50.954;5.310;2024-01-30T00:41:46;7.63;;;6.77;;
13289;SDS011;6713;50.954;5.310;2024-01-30T00:44:12;8.07;;;7.27;;
13289;SDS011;6713;50.954;5.310;2024-01-30T00:46:38;8.57;;;7.03;;
13289;SDS011;6713;50.954;5.310;2024-01-30T00:49:05;7.43;;;6.60;;
13289;SDS011;6713;50.954;5.310;2024-01-30T00:51:31;9.37;;;7.27;;
13289;SDS011;6713;50.954;5.310;2024-01-30T00:53:58;6.57;;;5.90;;
13289;SDS011;6713;50.954;5.310;2024-01-30T00:56:24;9.60;;;6.83;;
13289;SDS011;6713;50.954;5.310;2024-01-30T00:58:52;7.60;;;6.80;;
13289;SDS011;6713;50.954;5.310;2024-01-30T01:01:18;7.70;;;6.87;;
13289;SDS011;6713;50.954;5.310;2024-01-30T01:03:45;10.60;;;6.23;;
13289;SDS011;6713;50.954;5.310;2024-01-30T01:06:11;8.77;;;6.57;;
13289;SDS011;6713;50.954;5.310;2024-01-30T01:08:37;9.47;;;6.40;;
13289;SDS011;6713;50.954;5.310;2024-01-30T01:11:04;7.13;;;5.73;;
13289;SDS011;6713;50.954;5.310;2024-01-30T01:13:30;9.67;;;6.67;;
13289;SDS011;6713;50.954;5.310;2024-01-30T01:15:58;8.83;;;6.97;;
13289;SDS011;6713;50.954;5.310;2024-01-30T01:18:24;7.87;;;5.93;;
13289;SDS011;6713;50.954;5.310;2024-01-30T01:20:52;8.87;;;6.80;;
13289;SDS011;6713;50.954;5.310;2024-01-30T01:23:18;7.43;;;6.03;;
13289;SDS011;6713;50.954;5.310;2024-01-30T01:25:45;7.03;;;6.23;;
13289;SDS011;6713;50.954;5.310;2024-01-30T01:28:11;8.03;;;6.57;;
13289;SDS011;6713;50.954;5.310;2024-01-30T01:30:37;8.20;;;7.10;;
13289;SDS011;6713;50.954;5.310;2024-01-30T01:33:05;8.70;;;6.97;;
13289;SDS011;6713;50.954;5.310;2024-01-30T01:35:32;8.00;;;6.83;;
13289;SDS011;6713;50.954;5.310;2024-01-30T01:37:58;10.30;;;7.53;;
13289;SDS011;6713;50.954;5.310;2024-01-30T01:40:25;7.60;;;6.33;;
13289;SDS011;6713;50.954;5.310;2024-01-30T01:42:52;9.60;;;7.20;;
13289;SDS011;6713;50.954;5.310;2024-01-30T01:45:19;7.33;;;5.60;;
13289;SDS011;6713;50.954;5.310;2024-01-30T01:47:46;7.03;;;6.33;;
13289;SDS011;6713;50.954;5.310;2024-01-30T01:50:14;8.17;;;6.47;;
13289;SDS011;6713;50.954;5.310;2024-01-30T01:52:43;8.97;;;6.63;;
13289;SDS011;6713;50.954;5.310;2024-01-30T01:55:10;7.17;;;6.30;;
13289;SDS011;6713;50.954;5.310;2024-01-30T01:57:37;7.13;;;6.40;;
13289;SDS011;6713;50.954;5.310;2024-01-30T02:00:04;7.30;;;6.33;;
13289;SDS011;6713;50.954;5.310;2024-01-30T02:02:31;9.57;;;6.13;;
13289;SDS011;6713;50.954;5.310;2024-01-30T02:04:59;7.23;;;6.53;;
13289;SDS011;6713;50.954;5.310;2024-01-30T02:07:27;10.27;;;6.67;;
13289;SDS011;6713;50.954;5.310;2024-01-30T02:09:53;8.23;;;6.43;;
13289;SDS011;6713;50.954;5.310;2024-01-30T02:12:20;9.43;;;6.27;;
13289;SDS011;6713;50.954;5.310;2024-01-30T02:14:46;8.80;;;6.60;;
13289;SDS011;6713;50.954;5.310;2024-01-30T02:17:13;8.20;;;6.33;;
13289;SDS011;6713;50.954;5.310;2024-01-30T02:19:40;9.07;;;6.27;;
13289;SDS011;6713;50.954;5.310;2024-01-30T02:22:07;8.77;;;6.67;;
13289;SDS011;6713;50.954;5.310;2024-01-30T02:24:34;12.40;;;6.57;;
13289;SDS011;6713;50.954;5.310;2024-01-30T02:27:00;9.23;;;6.27;;
13289;SDS011;6713;50.954;5.310;2024-01-30T02:29:27;9.53;;;6.77;;
13289;SDS011;6713;50.954;5.310;2024-01-30T02:31:53;10.77;;;6.33;;
13289;SDS011;6713;50.954;5.310;2024-01-30T02:34:19;6.87;;;6.17;;
13289;SDS011;6713;50.954;5.310;2024-01-30T02:36:46;7.57;;;6.50;;
13289;SDS011;6713;50.954;5.310;2024-01-30T02:39:14;7.10;;;6.40;;
13289;SDS011;6713;50.954;5.310;2024-01-30T02:41:40;7.00;;;6.30;;
13289;SDS011;6713;50.954;5.310;2024-01-30T02:44:06;7.07;;;5.67;;
13289;SDS011;6713;50.954;5.310;2024-01-30T02:46:33;8.10;;;6.43;;
13289;SDS011;6713;50.954;5.310;2024-01-30T02:48:59;10.50;;;5.37;;
13289;SDS011;6713;50.954;5.310;2024-01-30T02:51:26;6.50;;;5.10;;
13289;SDS011;6713;50.954;5.310;2024-01-30T02:53:52;9.03;;;6.77;;
13289;SDS011;6713;50.954;5.310;2024-01-30T02:56:20;9.07;;;6.10;;
13289;SDS011;6713;50.954;5.310;2024-01-30T02:58:46;8.40;;;6.40;;
13289;SDS011;6713;50.954;5.310;2024-01-30T03:01:13;7.90;;;6.40;;
13289;SDS011;6713;50.954;5.310;2024-01-30T03:03:39;9.80;;;6.33;;
13289;SDS011;6713;50.954;5.310;2024-01-30T03:06:05;9.67;;;6.30;;
13289;SDS011;6713;50.954;5.310;2024-01-30T03:08:32;8.20;;;5.57;;
13289;SDS011;6713;50.954;5.310;2024-01-30T03:10:59;7.00;;;5.90;;
13289;SDS011;6713;50.954;5.310;2024-01-30T03:13:27;7.73;;;6.33;;
13289;SDS011;6713;50.954;5.310;2024-01-30T03:15:54;8.13;;;6.50;;
13289;SDS011;6713;50.954;5.310;2024-01-30T03:18:20;9.03;;;6.90;;
13289;SDS011;6713;50.954;5.310;2024-01-30T03:20:47;11.97;;;6.97;;
13289;SDS011;6713;50.954;5.310;2024-01-30T03:23:13;9.40;;;6.53;;
13289;SDS011;6713;50.954;5.310;2024-01-30T03:25:40;9.00;;;6.23;;
13289;SDS011;6713;50.954;5.310;2024-01-30T03:28:06;7.93;;;6.60;;
13289;SDS011;6713;50.954;5.310;2024-01-30T03:30:35;10.17;;;6.50;;
13289;SDS011;6713;50.954;5.310;2024-01-30T03:33:01;8.30;;;5.97;;
13289;SDS011;6713;50.954;5.310;2024-01-30T03:35:28;7.50;;;5.93;;
13289;SDS011;6713;50.954;5.310;2024-01-30T03:37:54;6.43;;;5.43;;
13289;SDS011;6713;50.954;5.310;2024-01-30T03:40:20;8.50;;;5.87;;
13289;SDS011;6713;50.954;5.310;2024-01-30T03:42:47;10.83;;;6.47;;
13289;SDS011;6713;50.954;5.310;2024-01-30T03:45:13;7.47;;;5.77;;
13289;SDS011;6713;50.954;5.310;2024-01-30T03:47:42;7.23;;;5.53;;
13289;SDS011;6713;50.954;5.310;2024-01-30T03:50:09;8.10;;;6.60;;
13289;SDS011;6713;50.954;5.310;2024-01-30T03:52:36;9.20;;;6.40;;
13289;SDS011;6713;50.954;5.310;2024-01-30T03:55:02;6.60;;;5.83;;
13289;SDS011;6713;50.954;5.310;2024-01-30T03:57:28;6.67;;;5.70;;
13289;SDS011;6713;50.954;5.310;2024-01-30T03:59:55;8.17;;;6.60;;
13289;SDS011;6713;50.954;5.310;2024-01-30T04:02:21;7.67;;;5.87;;
13289;SDS011;6713;50.954;5.310;2024-01-30T04:04:49;8.10;;;6.07;;
13289;SDS011;6713;50.954;5.310;2024-01-30T04:07:16;6.17;;;5.33;;
13289;SDS011;6713;50.954;5.310;2024-01-30T04:09:42;9.23;;;7.90;;
13289;SDS011;6713;50.954;5.310;2024-01-30T04:12:08;6.63;;;5.83;;
13289;SDS011;6713;50.954;5.310;2024-01-30T04:14:35;9.07;;;6.07;;
13289;SDS011;6713;50.954;5.310;2024-01-30T04:17:01;8.33;;;5.80;;
13289;SDS011;6713;50.954;5.310;2024-01-30T04:19:28;6.47;;;5.40;;
13289;SDS011;6713;50.954;5.310;2024-01-30T04:21:56;6.83;;;6.13;;
13289;SDS011;6713;50.954;5.310;2024-01-30T04:24:22;6.30;;;5.07;;
13289;SDS011;6713;50.954;5.310;2024-01-30T04:26:48;7.70;;;7.00;;
13289;SDS011;6713;50.954;5.310;2024-01-30T04:29:15;8.33;;;5.77;;
13289;SDS011;6713;50.954;5.310;2024-01-30T04:31:41;7.23;;;5.53;;
13289;SDS011;6713;50.954;5.310;2024-01-30T04:34:08;7.83;;;6.23;;
13289;SDS011;6713;50.954;5.310;2024-01-30T04:36:34;8.20;;;6.03;;
13289;SDS011;6713;50.954;5.310;2024-01-30T04:39:02;6.70;;;6.00;;
13289;SDS011;6713;50.954;5.310;2024-01-30T04:41:29;6.63;;;5.43;;
13289;SDS011;6713;50.954;5.310;2024-01-30T04:43:57;7.73;;;5.40;;
13289;SDS011;6713;50.954;5.310;2024-01-30T04:46:23;6.17;;;5.47;;
13289;SDS011;6713;50.954;5.310;2024-01-30T04:48:49;6.33;;;5.67;;
13289;SDS011;6713;50.954;5.310;2024-01-30T04:51:16;6.60;;;5.93;;
13289;SDS011;6713;50.954;5.310;2024-01-30T04:53:42;7.97;;;6.57;;
13289;SDS011;6713;50.954;5.310;2024-01-30T04:56:10;9.27;;;6.43;;
13289;SDS011;6713;50.954;5.310;2024-01-30T04:58:36;10.20;;;6.40;;
13289;SDS011;6713;50.954;5.310;2024-01-30T05:01:03;7.50;;;5.77;;
13289;SDS011;6713;50.954;5.310;2024-01-30T05:03:32;7.37;;;6.20;;
13289;SDS011;6713;50.954;5.310;2024-01-30T05:05:59;7.03;;;5.80;;
13289;SDS011;6713;50.954;5.310;2024-01-30T05:08:25;9.07;;;6.97;;
13289;SDS011;6713;50.954;5.310;2024-01-30T05:10:51;8.67;;;6.10;;
13289;SDS011;6713;50.954;5.310;2024-01-30T05:13:19;9.40;;;6.67;;
13289;SDS011;6713;50.954;5.310;2024-01-30T05:15:45;8.77;;;6.37;;
13289;SDS011;6713;50.954;5.310;2024-01-30T05:18:12;9.17;;;8.27;;
13289;SDS011;6713;50.954;5.310;2024-01-30T05:20:38;9.17;;;7.40;;
13289;SDS011;6713;50.954;5.310;2024-01-30T05:23:05;8.50;;;6.90;;
13289;SDS011;6713;50.954;5.310;2024-01-30T05:25:31;10.17;;;7.43;;
13289;SDS011;6713;50.954;5.310;2024-01-30T05:27:58;9.93;;;6.93;;
13289;SDS011;6713;50.954;5.310;2024-01-30T05:30:26;8.73;;;7.43;;
13289;SDS011;6713;50.954;5.310;2024-01-30T05:32:52;8.83;;;7.20;;
13289;SDS011;6713;50.954;5.310;2024-01-30T05:35:18;8.73;;;7.27;;
13289;SDS011;6713;50.954;5.310;2024-01-30T05:37:46;9.57;;;7.50;;
13289;SDS011;6713;50.954;5.310;2024-01-30T05:40:12;7.60;;;6.70;;
13289;SDS011;6713;50.954;5.310;2024-01-30T05:42:39;8.53;;;6.73;;
13289;SDS011;6713;50.954;5.310;2024-01-30T05:45:06;11.60;;;7.10;;
13289;SDS011;6713;50.954;5.310;2024-01-30T05:47:34;8.57;;;6.60;;
13289;SDS011;6713;50.954;5.310;2024-01-30T05:50:00;8.63;;;7.00;;
13289;SDS011;6713;50.954;5.310;2024-01-30T05:52:27;8.97;;;6.73;;
13289;SDS011;6713;50.954;5.310;2024-01-30T05:54:53;10.43;;;6.63;;
13289;SDS011;6713;50.954;5.310;2024-01-30T05:57:19;7.53;;;6.47;;
13289;SDS011;6713;50.954;5.310;2024-01-30T05:59:46;8.90;;;7.17;;
13289;SDS011;6713;50.954;5.310;2024-01-30T06:02:13;11.90;;;7.37;;
13289;SDS011;6713;50.954;5.310;2024-01-30T06:04:41;14.13;;;7.53;;
13289;SDS011;6713;50.954;5.310;2024-01-30T06:07:07;8.20;;;6.63;;
13289;SDS011;6713;50.954;5.310;2024-01-30T06:09:33;9.00;;;7.33;;
13289;SDS011;6713;50.954;5.310;2024-01-30T06:12:00;11.57;;;7.00;;
13289;SDS011;6713;50.954;5.310;2024-01-30T06:14:26;9.70;;;7.67;;
13289;SDS011;6713;50.954;5.310;2024-01-30T06:16:53;10.13;;;8.13;;
13289;SDS011;6713;50.954;5.310;2024-01-30T06:19:19;7.23;;;6.50;;
13289;SDS011;6713;50.954;5.310;2024-01-30T06:21:47;10.37;;;6.03;;
13289;SDS011;6713;50.954;5.310;2024-01-30T06:24:13;9.70;;;6.27;;
13289;SDS011;6713;50.954;5.310;2024-01-30T06:26:40;9.47;;;6.80;;
13289;SDS011;6713;50.954;5.310;2024-01-30T06:29:06;8.03;;;6.83;;
13289;SDS011;6713;50.954;5.310;2024-01-30T06:31:32;10.93;;;6.70;;
13289;SDS011;6713;50.954;5.310;2024-01-30T06:33:59;10.70;;;7.10;;
13289;SDS011;6713;50.954;5.310;2024-01-30T06:36:25;7.70;;;6.43;;
13289;SDS011;6713;50.954;5.310;2024-01-30T06:38:53;9.53;;;7.00;;
13289;SDS011;6713;50.954;5.310;2024-01-30T06:41:19;9.47;;;6.07;;
13289;SDS011;6713;50.954;5.310;2024-01-30T06:43:46;8.47;;;7.17;;
13289;SDS011;6713;50.954;5.310;2024-01-30T06:46:12;12.00;;;7.53;;
13289;SDS011;6713;50.954;5.310;2024-01-30T06:48:39;9.13;;;6.80;;
13289;SDS011;6713;50.954;5.310;2024-01-30T06:51:06;8.50;;;6.63;;
13289;SDS011;6713;50.954;5.310;2024-01-30T06:53:32;7.63;;;6.77;;
13289;SDS011;6713;50.954;5.310;2024-01-30T06:56:00;8.20;;;6.70;;
13289;SDS011;6713;50.954;5.310;2024-01-30T06:58:27;8.30;;;7.37;;
13289;SDS011;6713;50.954;5.310;2024-01-30T07:00:53;7.43;;;6.23;;
13289;SDS011;6713;50.954;5.310;2024-01-30T07:03:20;8.40;;;7.20;;
13289;SDS011;6713;50.954;5.310;2024-01-30T07:05:46;7.43;;;6.73;;
13289;SDS011;6713;50.954;5.310;2024-01-30T07:08:13;8.47;;;7.17;;
13289;SDS011;6713;50.954;5.310;2024-01-30T07:10:42;7.23;;;6.50;;
13289;SDS011;6713;50.954;5.310;2024-01-30T07:13:10;11.97;;;8.50;;
13289;SDS011;6713;50.954;5.310;2024-01-30T07:15:36;11.90;;;7.40;;
13289;SDS011;6713;50.954;5.310;2024-01-30T07:18:03;9.47;;;7.10;;
13289;SDS011;6713;50.954;5.310;2024-01-30T07:20:29;9.47;;;7.57;;
13289;SDS011;6713;50.954;5.310;2024-01-30T07:22:57;10.10;;;7.53;;
13289;SDS011;6713;50.954;5.310;2024-01-30T07:25:23;11.43;;;6.93;;
13289;SDS011;6713;50.954;5.310;2024-01-30T07:27:51;11.87;;;8.23;;
13289;SDS011;6713;50.954;5.310;2024-01-30T07:30:19;8.80;;;7.17;;
13289;SDS011;6713;50.954;5.310;2024-01-30T07:32:46;9.73;;;7.87;;
13289;SDS011;6713;50.954;5.310;2024-01-30T07:35:13;11.73;;;7.43;;
13289;SDS011;6713;50.954;5.310;2024-01-30T07:37:39;15.80;;;8.03;;
13289;SDS011;6713;50.954;5.310;2024-01-30T07:40:06;9.10;;;7.17;;
13289;SDS011;6713;50.954;5.310;2024-01-30T07:42:33;9.90;;;7.20;;
13289;SDS011;6713;50.954;5.310;2024-01-30T07:45:00;12.37;;;7.50;;
13289;SDS011;6713;50.954;5.310;2024-01-30T07:47:28;11.03;;;7.73;;
13289;SDS011;6713;50.954;5.310;2024-01-30T07:49:55;12.43;;;8.57;;
13289;SDS011;6713;50.954;5.310;2024-01-30T07:52:21;11.23;;;8.10;;
13289;SDS011;6713;50.954;5.310;2024-01-30T07:55:03;11.17;;;9.60;;
13289;SDS011;6713;50.954;5.310;2024-01-30T07:57:30;10.70;;;7.80;;
13289;SDS011;6713;50.954;5.310;2024-01-30T07:59:56;9.33;;;8.40;;
13289;SDS011;6713;50.954;5.310;2024-01-30T08:02:23;9.50;;;7.60;;
13289;SDS011;6713;50.954;5.310;2024-01-30T08:04:51;10.03;;;8.33;;
13289;SDS011;6713;50.954;5.310;2024-01-30T08:07:17;11.50;;;7.57;;
13289;SDS011;6713;50.954;5.310;2024-01-30T08:09:44;11.10;;;8.77;;
13289;SDS011;6713;50.954;5.310;2024-01-30T08:12:11;10.40;;;7.73;;
13289;SDS011;6713;50.954;5.310;2024-01-30T08:14:37;8.93;;;7.93;;
13289;SDS011;6713;50.954;5.310;2024-01-30T08:17:04;9.50;;;8.50;;
13289;SDS011;6713;50.954;5.310;2024-01-30T08:19:32;10.27;;;7.57;;
13289;SDS011;6713;50.954;5.310;2024-01-30T08:22:00;9.70;;;8.60;;
13289;SDS011;6713;50.954;5.310;2024-01-30T08:24:26;11.83;;;9.23;;
13289;SDS011;6713;50.954;5.310;2024-01-30T08:26:53;9.47;;;8.20;;
13289;SDS011;6713;50.954;5.310;2024-01-30T08:29:19;13.13;;;7.57;;
13289;SDS011;6713;50.954;5.310;2024-01-30T08:31:46;9.80;;;7.70;;
13289;SDS011;6713;50.954;5.310;2024-01-30T08:34:12;10.67;;;8.60;;
13289;SDS011;6713;50.954;5.310;2024-01-30T08:36:38;11.70;;;8.33;;
13289;SDS011;6713;50.954;5.310;2024-01-30T08:39:06;11.87;;;7.97;;
13289;SDS011;6713;50.954;5.310;2024-01-30T08:41:33;9.03;;;6.93;;
13289;SDS011;6713;50.954;5.310;2024-01-30T08:43:59;12.10;;;7.53;;
13289;SDS011;6713;50.954;5.310;2024-01-30T08:46:26;9.27;;;7.30;;
13289;SDS011;6713;50.954;5.310;2024-01-30T08:48:52;10.20;;;7.63;;
13289;SDS011;6713;50.954;5.310;2024-01-30T08:51:18;9.67;;;7.23;;
13289;SDS011;6713;50.954;5.310;2024-01-30T08:53:45;10.43;;;7.47;;
13289;SDS011;6713;50.954;5.310;2024-01-30T08:56:13;8.53;;;7.10;;
13289;SDS011;6713;50.954;5.310;2024-01-30T08:58:41;8.60;;;7.03;;
13289;SDS011;6713;50.954;5.310;2024-01-30T09:01:07;11.13;;;6.77;;
13289;SDS011;6713;50.954;5.310;2024-01-30T09:03:34;12.20;;;6.37;;
13289;SDS011;6713;50.954;5.310;2024-01-30T09:06:01;12.30;;;8.13;;
13289;SDS011;6713;50.954;5.310;2024-01-30T09:08:28;9.27;;;6.90;;
13289;SDS011;6713;50.954;5.310;2024-01-30T09:10:54;10.37;;;7.37;;
13289;SDS011;6713;50.954;5.310;2024-01-30T09:13:22;9.00;;;7.37;;
13289;SDS011;6713;50.954;5.310;2024-01-30T09:15:49;9.13;;;6.13;;
13289;SDS011;6713;50.954;5.310;2024-01-30T09:18:15;10.03;;;6.73;;
13289;SDS011;6713;50.954;5.310;2024-01-30T09:20:42;10.47;;;6.97;;
13289;SDS011;6713;50.954;5.310;2024-01-30T09:23:08;11.50;;;7.77;;
13289;SDS011;6713;50.954;5.310;2024-01-30T09:25:34;9.93;;;6.73;;
13289;SDS011;6713;50.954;5.310;2024-01-30T09:28:01;8.57;;;6.57;;
13289;SDS011;6713;50.954;5.310;2024-01-30T09:30:28;8.23;;;6.00;;
13289;SDS011;6713;50.954;5.310;2024-01-30T09:32:55;7.27;;;6.57;;
13289;SDS011;6713;50.954;5.310;2024-01-30T09:35:21;10.43;;;6.33;;
13289;SDS011;6713;50.954;5.310;2024-01-30T09:37:48;7.20;;;6.00;;
13289;SDS011;6713;50.954;5.310;2024-01-30T09:40:14;7.30;;;5.77;;
13289;SDS011;6713;50.954;5.310;2024-01-30T09:42:44;9.33;;;6.33;;
13289;SDS011;6713;50.954;5.310;2024-01-30T09:45:12;6.40;;;5.43;;
13289;SDS011;6713;50.954;5.310;2024-01-30T09:47:41;9.37;;;6.33;;
13289;SDS011;6713;50.954;5.310;2024-01-30T09:50:08;7.97;;;6.47;;
13289;SDS011;6713;50.954;5.310;2024-01-30T09:52:35;8.63;;;5.80;;
13289;SDS011;6713;50.954;5.310;2024-01-30T09:55:02;7.73;;;6.20;;
13289;SDS011;6713;50.954;5.310;2024-01-30T09:57:28;8.80;;;6.20;;
13289;SDS011;6713;50.954;5.310;2024-01-30T09:59:55;6.37;;;5.77;;
13289;SDS011;6713;50.954;5.310;2024-01-30T10:02:21;9.53;;;5.63;;
13289;SDS011;6713;50.954;5.310;2024-01-30T10:04:50;10.23;;;6.33;;
13289;SDS011;6713;50.954;5.310;2024-01-30T10:07:16;9.30;;;6.87;;
13289;SDS011;6713;50.954;5.310;2024-01-30T10:09:43;9.17;;;6.13;;
13289;SDS011;6713;50.954;5.310;2024-01-30T10:12:09;9.70;;;5.90;;
13289;SDS011;6713;50.954;5.310;2024-01-30T10:14:37;9.07;;;6.47;;
13289;SDS011;6713;50.954;5.310;2024-01-30T10:17:04;8.77;;;7.10;;
13289;SDS011;6713;50.954;5.310;2024-01-30T10:19:30;9.77;;;5.70;;
13289;SDS011;6713;50.954;5.310;2024-01-30T10:21:58;9.80;;;5.83;;
13289;SDS011;6713;50.954;5.310;2024-01-30T10:24:26;5.83;;;5.13;;
13289;SDS011;6713;50.954;5.310;2024-01-30T10:26:54;10.70;;;6.63;;
13289;SDS011;6713;50.954;5.310;2024-01-30T10:29:21;9.87;;;6.77;;
13289;SDS011;6713;50.954;5.310;2024-01-30T10:31:57;7.63;;;5.23;;
13289;SDS011;6713;50.954;5.310;2024-01-30T10:34:23;9.87;;;7.77;;
13289;SDS011;6713;50.954;5.310;2024-01-30T10:36:50;8.20;;;6.90;;
13289;SDS011;6713;50.954;5.310;2024-01-30T10:39:18;10.17;;;6.00;;
13289;SDS011;6713;50.954;5.310;2024-01-30T10:41:45;7.90;;;5.70;;
13289;SDS011;6713;50.954;5.310;2024-01-30T10:44:13;7.33;;;5.60;;
13289;SDS011;6713;50.954;5.310;2024-01-30T10:46:44;7.23;;;5.87;;
13289;SDS011;6713;50.954;5.310;2024-01-30T10:49:12;7.23;;;6.10;;
13289;SDS011;6713;50.954;5.310;2024-01-30T10:51:39;8.07;;;5.80;;
13289;SDS011;6713;50.954;5.310;2024-01-30T10:54:07;10.20;;;6.23;;
13289;SDS011;6713;50.954;5.310;2024-01-30T10:56:35;8.27;;;5.60;;
13289;SDS011;6713;50.954;5.310;2024-01-30T10:59:03;7.40;;;6.30;;
13289;SDS011;6713;50.954;5.310;2024-01-30T11:01:29;7.03;;;5.57;;
13289;SDS011;6713;50.954;5.310;2024-01-30T11:03:56;10.47;;;6.40;;
13289;SDS011;6713;50.954;5.310;2024-01-30T11:06:23;7.93;;;5.87;;
13289;SDS011;6713;50.954;5.310;2024-01-30T11:08:59;11.10;;;6.50;;
13289;SDS011;6713;50.954;5.310;2024-01-30T11:11:26;9.77;;;6.37;;
13289;SDS011;6713;50.954;5.310;2024-01-30T11:13:54;9.63;;;5.47;;
13289;SDS011;6713;50.954;5.310;2024-01-30T11:16:20;11.77;;;7.00;;
13289;SDS011;6713;50.954;5.310;2024-01-30T11:18:49;8.13;;;6.30;;
13289;SDS011;6713;50.954;5.310;2024-01-30T11:21:16;9.47;;;7.50;;
13289;SDS011;6713;50.954;5.310;2024-01-30T11:23:42;7.23;;;6.53;;
13289;SDS011;6713;50.954;5.310;2024-01-30T11:26:10;15.13;;;6.43;;
13289;SDS011;6713;50.954;5.310;2024-01-30T11:28:36;11.07;;;6.57;;
13289;SDS011;6713;50.954;5.310;2024-01-30T11:31:05;11.67;;;6.93;;
13289;SDS011;6713;50.954;5.310;2024-01-30T11:33:33;10.20;;;6.83;;
13289;SDS011;6713;50.954;5.310;2024-01-30T11:36:00;9.07;;;6.97;;
13289;SDS011;6713;50.954;5.310;2024-01-30T11:38:26;12.23;;;6.63;;
13289;SDS011;6713;50.954;5.310;2024-01-30T11:40:54;13.23;;;7.13;;
13289;SDS011;6713;50.954;5.310;2024-01-30T11:43:20;12.27;;;7.17;;
13289;SDS011;6713;50.954;5.310;2024-01-30T11:45:47;9.83;;;7.37;;
13289;SDS011;6713;50.954;5.310;2024-01-30T11:48:15;10.50;;;7.50;;
13289;SDS011;6713;50.954;5.310;2024-01-30T11:50:41;9.37;;;7.27;;
13289;SDS011;6713;50.954;5.310;2024-01-30T11:53:09;11.97;;;7.20;;
13289;SDS011;6713;50.954;5.310;2024-01-30T11:55:36;10.20;;;6.93;;
13289;SDS011;6713;50.954;5.310;2024-01-30T11:58:02;12.67;;;7.77;;
13289;SDS011;6713;50.954;5.310;2024-01-30T12:00:29;10.40;;;6.70;;
13289;SDS011;6713;50.954;5.310;2024-01-30T12:02:56;12.40;;;7.30;;
13289;SDS011;6713;50.954;5.310;2024-01-30T12:05:24;9.03;;;7.17;;
13289;SDS011;6713;50.954;5.310;2024-01-30T12:07:50;15.37;;;7.93;;
13289;SDS011;6713;50.954;5.310;2024-01-30T12:10:17;10.00;;;6.73;;
13289;SDS011;6713;50.954;5.310;2024-01-30T12:12:44;10.70;;;6.23;;
13289;SDS011;6713;50.954;5.310;2024-01-30T12:15:11;12.63;;;7.80;;
13289;SDS011;6713;50.954;5.310;2024-01-30T12:17:38;9.17;;;7.33;;
13289;SDS011;6713;50.954;5.310;2024-01-30T12:20:05;10.03;;;8.00;;
13289;SDS011;6713;50.954;5.310;2024-01-30T12:22:33;8.03;;;6.40;;
13289;SDS011;6713;50.954;5.310;2024-01-30T12:25:00;10.97;;;6.67;;
13289;SDS011;6713;50.954;5.310;2024-01-30T12:27:26;11.13;;;6.93;;
13289;SDS011;6713;50.954;5.310;2024-01-30T12:29:56;8.60;;;6.43;;
13289;SDS011;6713;50.954;5.310;2024-01-30T12:32:23;9.47;;;6.27;;
13289;SDS011;6713;50.954;5.310;2024-01-30T12:34:49;8.03;;;5.93;;
13289;SDS011;6713;50.954;5.310;2024-01-30T12:37:15;12.97;;;5.93;;
13289;SDS011;6713;50.954;5.310;2024-01-30T12:39:48;7.70;;;5.40;;
13289;SDS011;6713;50.954;5.310;2024-01-30T12:42:15;6.90;;;4.57;;
13289;SDS011;6713;50.954;5.310;2024-01-30T12:44:41;5.03;;;4.37;;
13289;SDS011;6713;50.954;5.310;2024-01-30T12:47:08;8.50;;;4.53;;
13289;SDS011;6713;50.954;5.310;2024-01-30T12:49:35;7.63;;;4.03;;
13289;SDS011;6713;50.954;5.310;2024-01-30T12:52:01;8.40;;;4.37;;
13289;SDS011;6713;50.954;5.310;2024-01-30T12:54:28;5.50;;;3.97;;
13289;SDS011;6713;50.954;5.310;2024-01-30T12:56:55;5.50;;;3.47;;
13289;SDS011;6713;50.954;5.310;2024-01-30T12:59:22;8.77;;;3.93;;
13289;SDS011;6713;50.954;5.310;2024-01-30T13:01:48;4.23;;;3.77;;
13289;SDS011;6713;50.954;5.310;2024-01-30T13:04:15;6.73;;;3.60;;
13289;SDS011;6713;50.954;5.310;2024-01-30T13:06:41;6.77;;;4.00;;
13289;SDS011;6713;50.954;5.310;2024-01-30T13:09:08;4.60;;;2.93;;
13289;SDS011;6713;50.954;5.310;2024-01-30T13:11:34;3.03;;;2.63;;
13289;SDS011;6713;50.954;5.310;2024-01-30T13:14:02;4.23;;;2.70;;
13289;SDS011;6713;50.954;5.310;2024-01-30T13:16:29;5.07;;;2.63;;
13289;SDS011;6713;50.954;5.310;2024-01-30T13:18:55;2.80;;;2.60;;
13289;SDS011;6713;50.954;5.310;2024-01-30T13:21:22;3.17;;;2.37;;
13289;SDS011;6713;50.954;5.310;2024-01-30T13:23:48;2.73;;;2.33;;
13289;SDS011;6713;50.954;5.310;2024-01-30T13:26:18;3.10;;;2.00;;
13289;SDS011;6713;50.954;5.310;2024-01-30T13:28:44;3.33;;;2.00;;
13289;SDS011;6713;50.954;5.310;2024-01-30T13:31:12;1.90;;;1.70;;
13289;SDS011;6713;50.954;5.310;2024-01-30T13:33:38;3.07;;;2.00;;
13289;SDS011;6713;50.954;5.310;2024-01-30T13:36:05;4.83;;;2.53;;
13289;SDS011;6713;50.954;5.310;2024-01-30T13:38:31;2.80;;;1.80;;
13289;SDS011;6713;50.954;5.310;2024-01-30T13:40:58;3.37;;;1.50;;
13289;SDS011;6713;50.954;5.310;2024-01-30T13:43:25;2.13;;;1.97;;
13289;SDS011;6713;50.954;5.310;2024-01-30T13:45:51;2.27;;;1.80;;
13289;SDS011;6713;50.954;5.310;2024-01-30T13:48:19;2.63;;;1.77;;
13289;SDS011;6713;50.954;5.310;2024-01-30T13:50:46;2.17;;;1.10;;
13289;SDS011;6713;50.954;5.310;2024-01-30T13:53:13;1.50;;;1.33;;
13289;SDS011;6713;50.954;5.310;2024-01-30T13:55:39;1.20;;;1.00;;
13289;SDS011;6713;50.954;5.310;2024-01-30T13:58:06;1.77;;;1.57;;
13289;SDS011;6713;50.954;5.310;2024-01-30T14:00:32;1.73;;;1.00;;
13289;SDS011;6713;50.954;5.310;2024-01-30T14:02:59;2.00;;;1.00;;
13289;SDS011;6713;50.954;5.310;2024-01-30T14:05:27;0.87;;;0.87;;
13289;SDS011;6713;50.954;5.310;2024-01-30T14:07:54;0.77;;;0.70;;
13289;SDS011;6713;50.954;5.310;2024-01-30T14:10:20;1.13;;;0.73;;
13289;SDS011;6713;50.954;5.310;2024-01-30T14:12:47;1.30;;;0.80;;
13289;SDS011;6713;50.954;5.310;2024-01-30T14:15:13;1.60;;;0.80;;
13289;SDS011;6713;50.954;5.310;2024-01-30T14:17:42;0.87;;;0.73;;
13289;SDS011;6713;50.954;5.310;2024-01-30T14:20:10;1.73;;;0.73;;
13289;SDS011;6713;50.954;5.310;2024-01-30T14:22:38;0.70;;;0.70;;
13289;SDS011;6713;50.954;5.310;2024-01-30T14:25:05;0.97;;;0.60;;
13289;SDS011;6713;50.954;5.310;2024-01-30T14:27:31;1.20;;;0.80;;
13289;SDS011;6713;50.954;5.310;2024-01-30T14:29:58;0.77;;;0.77;;
13289;SDS011;6713;50.954;5.310;2024-01-30T14:32:24;1.27;;;0.70;;
13289;SDS011;6713;50.954;5.310;2024-01-30T14:34:51;1.07;;;0.80;;
13289;SDS011;6713;50.954;5.310;2024-01-30T14:37:18;2.13;;;0.80;;
13289;SDS011;6713;50.954;5.310;2024-01-30T14:39:46;2.97;;;0.90;;
13289;SDS011;6713;50.954;5.310;2024-01-30T14:42:13;3.70;;;0.90;;
13289;SDS011;6713;50.954;5.310;2024-01-30T14:44:39;2.70;;;0.70;;
13289;SDS011;6713;50.954;5.310;2024-01-30T14:47:06;0.90;;;0.60;;
13289;SDS011;6713;50.954;5.310;2024-01-30T14:49:32;1.10;;;0.70;;
13289;SDS011;6713;50.954;5.310;2024-01-30T14:51:58;1.43;;;0.93;;
13289;SDS011;6713;50.954;5.310;2024-01-30T14:54:25;2.60;;;0.70;;